createdAt,value
2022-08-07T00:02:36.255Z,79.21
2022-08-07T00:06:33.057Z,79.04
2022-08-07T00:10:48.289Z,79.35
2022-08-07T00:14:59.802Z,79.90
2022-08-07T00:19:03.592Z,79.71
2022-08-07T00:23:09.665Z,79.32
2022-08-07T00:27:12.204Z,80.11
2022-08-07T00:31:16.705Z,79.67
2022-08-07T00:35:23.158Z,79.52
2022-08-07T00:39:27.311Z,79.94
2022-08-07T00:43:59.538Z,80.58
2022-08-07T00:48:07.628Z,81.89
2022-08-07T00:52:12.551Z,82.61
2022-08-07T00:56:17.062Z,82.68
2022-08-07T01:00:20.460Z,82.27
2022-08-07T01:04:25.105Z,81.75
2022-08-07T01:08:27.987Z,81.46
2022-08-07T01:12:32.561Z,81.33
2022-08-07T01:16:37.415Z,81.65
2022-08-07T01:20:59.582Z,82.24
2022-08-07T01:25:53.669Z,82.68
2022-08-07T01:29:33.955Z,83.86
2022-08-07T01:33:55.429Z,85.30
2022-08-07T01:38:03.085Z,84.93
2022-08-07T01:42:38.250Z,84.40
2022-08-07T01:46:31.167Z,83.49
2022-08-07T01:50:37.665Z,83.57
2022-08-07T01:54:45.884Z,82.27
2022-08-07T01:58:55.377Z,83.02
2022-08-07T02:03:18.299Z,83.69
2022-08-07T02:07:35.815Z,83.85
2022-08-07T02:12:04.305Z,84.20
2022-08-07T02:16:12.609Z,84.85
2022-08-07T02:20:23.292Z,84.64
2022-08-07T02:24:29.942Z,84.80
2022-08-07T02:28:34.462Z,85.02
2022-08-07T02:33:00.773Z,85.93
2022-08-07T02:37:08.292Z,85.65
2022-08-07T02:41:14.018Z,85.36
2022-08-07T02:46:00.330Z,84.87
2022-08-07T02:49:57.964Z,83.47
2022-08-07T02:54:08.896Z,83.65
2022-08-07T02:58:13.925Z,84.55
2022-08-07T03:02:19.278Z,84.83
2022-08-07T03:06:25.812Z,84.68
2022-08-07T03:10:40.866Z,84.69
2022-08-07T03:14:52.820Z,85.13
2022-08-07T03:18:56.543Z,85.43
2022-08-07T03:23:02.627Z,85.86
2022-08-07T03:27:09.276Z,85.83
2022-08-07T03:31:26.153Z,85.60
2022-08-07T03:35:50.062Z,85.18
2022-08-07T03:40:07.397Z,84.91
2022-08-07T03:44:21.756Z,85.09
2022-08-07T03:48:45.521Z,85.13
2022-08-07T03:52:59.918Z,85.26
2022-08-07T03:57:07.429Z,84.74
2022-08-07T04:01:11.924Z,84.59
2022-08-07T04:05:23.967Z,84.86
2022-08-07T04:09:44.867Z,84.39
2022-08-07T04:14:33.269Z,83.92
2022-08-07T04:18:58.697Z,83.73
2022-08-07T04:22:53.607Z,83.86
2022-08-07T04:27:05.299Z,84.26
2022-08-07T04:31:39.294Z,84.33
2022-08-07T04:35:51.266Z,84.55
2022-08-07T04:40:00.210Z,84.97
2022-08-07T04:44:12.192Z,85.60
2022-08-07T04:48:34.329Z,85.65
2022-08-07T04:52:51.180Z,85.48
2022-08-07T04:58:15.327Z,84.95
2022-08-07T05:01:40.100Z,84.71
2022-08-07T05:05:57.384Z,84.16
2022-08-07T05:10:07.725Z,84.07
2022-08-07T05:14:55.214Z,82.84
2022-08-07T05:18:49.465Z,82.20
2022-08-07T05:22:59.228Z,81.64
2022-08-07T05:27:03.435Z,81.25
2022-08-07T05:31:08.761Z,81.60
2022-08-07T05:35:13.223Z,80.85
2022-08-07T05:40:05.492Z,81.18
2022-08-07T05:44:07.537Z,80.76
2022-08-07T05:48:09.022Z,79.58
2022-08-07T05:52:20.091Z,79.67
2022-08-07T05:56:30.228Z,79.10
2022-08-07T06:00:37.068Z,78.51
2022-08-07T06:04:50.775Z,78.96
2022-08-07T06:08:55.145Z,77.90
2022-08-07T06:13:02.224Z,76.99
2022-08-07T06:17:08.349Z,77.68
2022-08-07T06:22:17.021Z,76.17
2022-08-07T06:25:41.389Z,74.75
2022-08-07T06:29:59.277Z,73.72
2022-08-07T06:34:02.545Z,72.47
2022-08-07T06:38:06.464Z,72.34
2022-08-07T06:42:17.482Z,72.11
2022-08-07T06:46:41.427Z,71.10
2022-08-07T06:50:49.472Z,70.52
2022-08-07T06:55:33.272Z,69.90
2022-08-07T07:00:14.717Z,68.18
2022-08-07T07:03:49.830Z,67.04
2022-08-07T07:08:03.938Z,67.13
2022-08-07T07:12:31.276Z,66.39
2022-08-07T07:16:49.791Z,65.31
2022-08-07T07:20:58.406Z,64.27
2022-08-07T07:26:31.669Z,63.55
2022-08-07T07:29:38.896Z,62.89
2022-08-07T07:33:48.926Z,63.08
2022-08-07T07:38:02.902Z,62.22
2022-08-07T07:42:13.875Z,62.23
2022-08-07T07:46:36.790Z,60.90
2022-08-07T07:50:48.841Z,60.11
2022-08-07T07:54:56.577Z,59.97
2022-08-07T07:59:01.887Z,58.03
2022-08-07T08:03:09.218Z,54.51
2022-08-07T08:07:20.523Z,54.24
2022-08-07T08:11:59.811Z,53.95
2022-08-07T08:16:04.330Z,54.29
2022-08-07T08:20:18.464Z,52.73
2022-08-07T08:24:45.873Z,52.48
2022-08-07T08:28:53.399Z,51.49
2022-08-07T08:33:00.403Z,51.48
2022-08-07T08:37:09.748Z,51.60
2022-08-07T08:41:18.649Z,50.32
2022-08-07T08:45:41.464Z,49.71
2022-08-07T08:50:05.178Z,49.66
2022-08-07T08:54:11.981Z,46.79
2022-08-07T08:58:28.329Z,46.26
2022-08-07T09:02:41.895Z,44.99
2022-08-07T09:06:49.037Z,43.84
2022-08-07T09:11:03.034Z,43.22
2022-08-07T09:16:21.841Z,42.71
2022-08-07T09:19:57.457Z,41.67
2022-08-07T09:24:34.482Z,40.62
2022-08-07T09:30:05.419Z,40.51
2022-08-07T09:33:16.438Z,41.04
2022-08-07T09:37:53.485Z,40.29
2022-08-07T09:42:07.709Z,39.72
2022-08-07T09:47:51.358Z,39.17
2022-08-07T09:51:14.804Z,39.35
2022-08-07T09:56:03.399Z,39.13
2022-08-07T10:00:14.817Z,38.16
2022-08-07T10:04:32.844Z,37.98
2022-08-07T10:08:56.916Z,38.46
2022-08-07T10:13:54.919Z,37.27
2022-08-07T10:18:12.014Z,37.72
2022-08-07T10:22:36.819Z,37.74
2022-08-07T10:26:53.004Z,37.97
2022-08-07T10:31:11.507Z,38.25
2022-08-07T10:35:25.671Z,38.70
2022-08-07T10:39:42.192Z,38.50
2022-08-07T10:44:13.293Z,38.81
2022-08-07T10:48:42.084Z,38.81
2022-08-07T10:52:56.502Z,37.65
2022-08-07T10:57:10.206Z,37.46
2022-08-07T11:01:35.595Z,36.86
2022-08-07T11:05:59.643Z,35.88
2022-08-07T11:10:11.743Z,35.73
2022-08-07T11:14:44.522Z,35.60
2022-08-07T11:18:51.006Z,35.63
2022-08-07T11:23:02.510Z,35.08
2022-08-07T11:27:16.497Z,34.13
2022-08-07T11:31:35.126Z,33.55
2022-08-07T11:36:00.187Z,33.98
2022-08-07T11:40:19.170Z,34.08
2022-08-07T11:44:31.145Z,33.62
2022-08-07T11:49:27.877Z,34.57
2022-08-07T11:53:35.576Z,35.65
2022-08-07T11:57:59.533Z,36.24
2022-08-07T12:02:30.071Z,36.14
2022-08-07T12:06:51.692Z,36.39
2022-08-07T12:11:21.876Z,36.01
2022-08-07T12:15:46.530Z,35.98
2022-08-07T12:20:03.430Z,36.19
2022-08-07T12:24:37.515Z,35.54
2022-08-07T12:28:49.882Z,35.30
2022-08-07T12:33:18.648Z,34.98
2022-08-07T12:37:23.483Z,34.35
2022-08-07T12:41:49.112Z,34.34
2022-08-07T12:46:25.924Z,34.86
2022-08-07T12:50:40.245Z,34.86
2022-08-07T12:55:03.743Z,34.87
2022-08-07T12:59:20.467Z,35.28
2022-08-07T13:04:02.120Z,34.83
2022-08-07T13:08:23.829Z,35.48
2022-08-07T13:12:38.624Z,35.07
2022-08-07T13:16:51.555Z,34.94
2022-08-07T13:20:59.211Z,34.38
2022-08-07T13:25:10.228Z,34.53
2022-08-07T13:29:24.645Z,34.57
2022-08-07T13:34:32.139Z,35.03
2022-08-07T13:38:04.879Z,34.64
2022-08-07T13:42:14.544Z,34.78
2022-08-07T13:46:33.819Z,33.86
2022-08-07T13:50:45.319Z,33.97
2022-08-07T13:55:07.961Z,33.73
2022-08-07T13:59:21.427Z,33.03
2022-08-07T14:03:29.911Z,32.55
2022-08-07T14:07:59.981Z,32.14
2022-08-07T14:12:10.560Z,32.26
2022-08-07T14:16:17.711Z,32.65
2022-08-07T14:20:39.262Z,32.60
2022-08-07T14:24:51.152Z,32.44
2022-08-07T14:28:59.045Z,32.00
2022-08-07T14:33:06.189Z,31.85
2022-08-07T14:42:20.071Z,31.20
2022-08-07T14:46:00.089Z,31.18
2022-08-07T14:50:11.485Z,30.49
2022-08-07T14:54:32.877Z,30.15
2022-08-07T14:58:40.070Z,30.43
2022-08-07T15:02:47.045Z,30.11
2022-08-07T15:07:01.200Z,29.92
2022-08-07T15:13:06.525Z,28.98
2022-08-07T15:15:53.407Z,30.03
2022-08-07T15:20:32.367Z,30.41
2022-08-07T15:25:12.959Z,30.27
2022-08-07T15:30:09.206Z,30.56
2022-08-07T15:33:22.528Z,30.20
2022-08-07T15:38:18.337Z,30.33
2022-08-07T15:42:43.441Z,29.21
2022-08-07T15:51:08.665Z,29.65
2022-08-07T15:55:16.103Z,29.15
2022-08-07T15:59:38.949Z,28.77
2022-08-07T16:03:57.364Z,29.06
2022-08-07T16:08:32.106Z,28.96
2022-08-07T16:12:37.831Z,28.58
2022-08-07T16:16:56.797Z,29.42
2022-08-07T16:22:02.466Z,29.58
2022-08-07T16:25:55.300Z,29.35
2022-08-07T16:30:30.460Z,29.00
2022-08-07T16:34:48.089Z,29.18
2022-08-07T16:39:16.704Z,29.49
2022-08-07T16:44:05.658Z,28.97
2022-08-07T16:48:53.655Z,29.69
2022-08-07T16:54:02.073Z,30.00
2022-08-07T16:58:04.106Z,30.02
2022-08-07T17:02:52.287Z,30.38
2022-08-07T17:07:04.017Z,30.26
2022-08-07T17:11:14.406Z,29.97
2022-08-07T17:15:21.822Z,29.98
2022-08-07T17:20:01.665Z,29.71
2022-08-07T17:24:23.716Z,30.08
2022-08-07T17:28:38.161Z,30.15
2022-08-07T17:33:05.224Z,30.31
2022-08-07T17:38:06.419Z,30.53
2022-08-07T17:42:03.755Z,30.75
2022-08-07T17:46:16.151Z,30.94
2022-08-07T17:50:21.481Z,31.51
2022-08-07T17:54:54.053Z,32.14
2022-08-07T17:59:02.512Z,32.58
2022-08-07T18:03:19.139Z,33.66
2022-08-07T18:07:34.246Z,34.77
2022-08-07T18:12:06.775Z,35.43
2022-08-07T18:16:11.400Z,36.24
2022-08-07T18:21:03.433Z,37.43
2022-08-07T18:24:53.483Z,37.48
2022-08-07T18:30:07.918Z,37.57
2022-08-07T18:34:04.900Z,38.27
2022-08-07T18:38:56.135Z,38.85
2022-08-07T18:43:10.092Z,39.38
2022-08-07T18:47:20.960Z,40.10
2022-08-07T18:52:34.873Z,40.12
2022-08-07T18:56:08.102Z,40.97
2022-08-07T19:00:34.580Z,42.07
2022-08-07T19:04:57.907Z,43.01
2022-08-07T19:09:57.487Z,43.45
2022-08-07T19:13:55.342Z,43.23
2022-08-07T19:18:15.485Z,44.07
2022-08-07T19:22:30.765Z,44.61
2022-08-07T19:27:09.164Z,44.57
2022-08-07T19:31:38.193Z,45.31
2022-08-07T19:35:35.305Z,45.85
2022-08-07T19:39:57.389Z,47.06
2022-08-07T19:44:05.389Z,48.40
2022-08-07T19:48:42.126Z,48.26
2022-08-07T19:52:45.702Z,48.53
2022-08-07T19:58:01.164Z,49.39
2022-08-07T20:01:52.954Z,49.26
2022-08-07T20:06:00.692Z,49.77
2022-08-07T20:10:35.275Z,51.33
2022-08-07T20:14:32.542Z,51.50
2022-08-07T20:18:35.792Z,52.10
